Time;durP1;ratioP1;P1;durP2;ratioP2;P2;SDS_P1;SDS_P2;PMS_P1;PMS_P2;Temp;Humidity;BMP_temperature;BMP_pressure;BME280_temperature;BME280_humidity;BME280_pressure;Samples;Min_cycle;Max_cycle;Signal;HPM_P1;HPM_P2
2022/10/23 00:01:27;;;;;;;6.13;3.40;;;10.80;99.90;;;;;;5091628;28;20101;-71
2022/10/23 00:03:58;;;;;;;11.77;4.10;;;10.70;99.90;;;;;;5085616;28;20487;-71
2022/10/23 00:06:24;;;;;;;5.05;3.10;;;10.80;99.90;;;;;;5082591;28;20035;-71
2022/10/23 00:08:50;;;;;;;5.55;3.60;;;10.70;99.90;;;;;;5080994;28;20107;-71
2022/10/23 00:11:20;;;;;;;4.70;3.05;;;10.80;99.90;;;;;;5088606;28;20103;-71
2022/10/23 00:13:46;;;;;;;5.18;4.03;;;10.70;99.90;;;;;;5089922;28;20047;-71
2022/10/23 00:16:12;;;;;;;4.72;3.17;;;10.70;99.90;;;;;;5084524;28;20035;-71
2022/10/23 00:18:38;;;;;;;4.15;3.40;;;;;;;;;;5080003;28;20032;-71
2022/10/23 00:21:05;;;;;;;9.50;3.83;;;;;;;;;;5081515;28;20028;-71
2022/10/23 00:23:36;;;;;;;7.43;3.92;;;;;;;;;;5080334;28;20016;-71
2022/10/23 00:26:10;;;;;;;7.80;4.18;;;;;;;;;;5082739;28;20029;-71
2022/10/23 00:28:37;;;;;;;5.50;3.83;;;;;;;;;;5083080;28;20177;-71
2022/10/23 00:31:04;;;;;;;7.30;3.97;;;10.60;99.90;;;;;;5080896;28;20074;-71
2022/10/23 00:33:34;;;;;;;7.75;4.25;;;10.60;99.90;;;;;;5082915;28;20631;-71
2022/10/23 00:35:59;;;;;;;8.90;5.32;;;10.50;99.90;;;;;;5079868;28;20697;-71
2022/10/23 00:38:25;;;;;;;9.40;4.00;;;10.50;99.90;;;;;;5086714;28;20107;-72
2022/10/23 00:40:51;;;;;;;5.63;3.83;;;10.60;99.90;;;;;;5083670;28;20036;-72
2022/10/23 00:43:22;;;;;;;8.13;3.58;;;10.60;99.90;;;;;;5085097;28;20082;-72
2022/10/23 00:45:48;;;;;;;9.55;3.80;;;10.50;99.90;;;;;;5083731;28;20027;-72
2022/10/23 00:48:13;;;;;;;9.18;4.20;;;10.50;99.90;;;;;;5085649;28;20032;-72
2022/10/23 00:50:41;;;;;;;7.05;3.85;;;10.50;99.90;;;;;;5085805;28;20048;-72
2022/10/23 00:53:08;;;;;;;4.43;3.78;;;10.40;99.90;;;;;;5085439;28;20031;-72
2022/10/23 00:55:34;;;;;;;6.15;3.60;;;10.40;99.90;;;;;;5093851;28;20092;-72
2022/10/23 00:58:00;;;;;;;7.43;4.13;;;10.40;99.90;;;;;;5091215;28;20032;-72
2022/10/23 01:00:40;;;;;;;4.38;3.58;;;10.30;99.90;;;;;;5094560;28;20031;-72
2022/10/23 01:03:06;;;;;;;6.85;4.38;;;10.40;99.90;;;;;;5093723;28;20047;-72
2022/10/23 01:05:40;;;;;;;9.30;4.53;;;10.30;99.90;;;;;;5094074;28;20037;-72
2022/10/23 01:08:15;;;;;;;11.15;4.35;;;10.30;99.90;;;;;;5086002;28;20457;-72
2022/10/23 01:10:47;;;;;;;6.13;4.22;;;10.30;99.90;;;;;;5093855;28;20089;-72
2022/10/23 01:13:27;;;;;;;5.95;4.45;;;10.30;99.90;;;;;;5093792;28;20024;-72
2022/10/23 01:16:04;;;;;;;6.10;3.95;;;10.30;99.90;;;;;;5092778;28;20103;-72
2022/10/23 01:18:59;;;;;;;7.85;4.72;;;10.20;99.90;;;;;;5093357;28;20040;-72
2022/10/23 01:21:43;;;;;;;6.82;3.97;;;10.20;99.90;;;;;;5083729;28;20504;-72
2022/10/23 01:24:32;;;;;;;8.70;4.45;;;10.20;99.90;;;;;;5091724;28;20104;-72
2022/10/23 01:27:16;;;;;;;7.05;4.00;;;10.20;99.90;;;;;;5092344;28;20028;-72
2022/10/23 01:29:52;;;;;;;5.68;4.05;;;10.20;99.90;;;;;;5092763;28;20492;-72
2022/10/23 01:32:31;;;;;;;6.28;4.05;;;10.10;99.90;;;;;;5093538;28;20028;-72
2022/10/23 01:35:19;;;;;;;8.30;4.97;;;10.10;99.90;;;;;;5073950;28;20432;-72
2022/10/23 01:37:52;;;;;;;6.75;4.40;;;10.10;99.90;;;;;;5078435;28;20507;-71
2022/10/23 01:40:31;;;;;;;8.98;3.92;;;10.00;99.90;;;;;;5092593;28;20059;-71
2022/10/23 01:43:06;;;;;;;4.93;4.07;;;10.00;99.90;;;;;;5092800;28;20082;-71
2022/10/23 01:45:41;;;;;;;6.93;4.38;;;9.90;99.90;;;;;;5093701;28;20030;-70
2022/10/23 01:48:12;;;;;;;5.10;4.22;;;9.90;99.90;;;;;;5091520;28;20027;-71
2022/10/23 01:50:40;;;;;;;6.95;4.25;;;9.90;99.90;;;;;;5093201;28;20113;-71
2022/10/23 01:53:06;;;;;;;5.68;3.95;;;9.90;99.90;;;;;;5092260;28;20032;-71
2022/10/23 01:55:32;;;;;;;5.97;4.55;;;9.80;99.90;;;;;;5088201;28;20086;-71
2022/10/23 01:58:01;;;;;;;8.15;4.55;;;9.80;99.90;;;;;;5084729;28;20024;-71
2022/10/23 02:00:27;;;;;;;6.60;4.35;;;9.80;99.90;;;;;;5074857;28;20043;-72
2022/10/23 02:02:55;;;;;;;8.15;5.07;;;9.70;99.90;;;;;;5092902;28;20036;-72
2022/10/23 02:05:25;;;;;;;5.88;4.32;;;9.80;99.90;;;;;;5092623;28;20098;-72
2022/10/23 02:07:51;;;;;;;5.97;4.47;;;9.70;99.90;;;;;;5092537;28;20027;-72
2022/10/23 02:10:18;;;;;;;11.50;5.68;;;9.70;99.90;;;;;;5092753;28;20059;-72
2022/10/23 02:12:49;;;;;;;7.97;4.90;;;;;;;;;;5079114;28;20040;-73
2022/10/23 02:15:15;;;;;;;10.52;5.63;;;;;;;;;;5082268;28;20461;-72
2022/10/23 02:17:50;;;;;;;10.55;4.93;;;;;;;;;;5092896;28;20069;-71
2022/10/23 02:20:26;;;;;;;7.90;4.50;;;9.80;99.90;;;;;;5092598;28;20035;-71
2022/10/23 02:22:59;;;;;;;15.75;5.10;;;9.70;99.90;;;;;;5091661;28;20032;-71
2022/10/23 02:25:36;;;;;;;6.97;4.90;;;9.70;99.90;;;;;;5092713;28;20036;-71
2022/10/23 02:28:06;;;;;;;6.97;4.05;;;9.70;99.90;;;;;;5079224;28;20435;-71
2022/10/23 02:30:35;;;;;;;7.05;4.18;;;9.70;99.90;;;;;;5091697;28;20082;-71
2022/10/23 02:33:02;;;;;;;6.90;4.10;;;9.80;99.90;;;;;;5091287;28;20446;-72
2022/10/23 02:35:28;;;;;;;4.25;3.72;;;9.80;99.90;;;;;;5092826;28;20028;-72
2022/10/23 02:37:55;;;;;;;6.07;4.32;;;9.80;99.90;;;;;;5091867;28;20389;-72
2022/10/23 02:40:25;;;;;;;5.50;4.05;;;9.80;99.90;;;;;;5092874;28;20388;-72
2022/10/23 02:43:02;;;;;;;6.43;3.70;;;9.80;99.90;;;;;;5092035;28;20020;-72
2022/10/23 02:45:59;;;;;;;8.30;4.07;;;9.80;99.90;;;;;;5086296;28;20056;-72
2022/10/23 02:48:35;;;;;;;5.68;3.83;;;9.80;99.90;;;;;;5089809;28;20243;-72
2022/10/23 02:51:19;;;;;;;5.78;3.28;;;9.90;99.90;;;;;;5091313;28;20527;-72
2022/10/23 02:54:09;;;;;;;10.60;3.95;;;9.90;99.90;;;;;;5085454;28;20401;-72
2022/10/23 02:56:43;;;;;;;;;;;9.80;99.90;;;;;;5092373;28;20032;-72
2022/10/23 02:59:30;;;;;;;5.40;3.35;;;9.80;99.90;;;;;;5091065;28;19912;-72
2022/10/23 03:02:10;;;;;;;6.63;3.92;;;9.80;99.90;;;;;;5086218;28;20029;-72
2022/10/23 03:04:38;;;;;;;4.32;3.17;;;9.90;99.90;;;;;;5084256;28;20020;-72
2022/10/23 03:07:03;;;;;;;4.95;3.70;;;9.80;99.90;;;;;;5091427;28;20048;-72
2022/10/23 03:09:30;;;;;;;5.22;3.30;;;9.80;99.90;;;;;;5087566;28;20119;-72
2022/10/23 03:11:55;;;;;;;5.88;3.20;;;9.80;99.90;;;;;;5090686;28;20028;-72
2022/10/23 03:14:21;;;;;;;4.95;3.25;;;9.80;99.90;;;;;;5090822;28;20032;-72
2022/10/23 03:16:47;;;;;;;4.50;3.25;;;9.70;99.90;;;;;;5091458;28;20020;-73
2022/10/23 03:19:12;;;;;;;6.43;3.50;;;9.70;99.90;;;;;;5090997;28;20036;-72
2022/10/23 03:21:38;;;;;;;5.47;3.70;;;9.70;99.90;;;;;;5090544;28;20031;-72
2022/10/23 03:24:03;;;;;;;3.63;3.33;;;9.70;99.90;;;;;;5090137;28;20028;-72
2022/10/23 03:26:29;;;;;;;3.53;3.20;;;9.70;99.90;;;;;;5091788;28;20499;-72
2022/10/23 03:28:55;;;;;;;4.35;3.10;;;9.60;99.90;;;;;;5090388;28;20040;-72
2022/10/23 03:31:20;;;;;;;4.05;3.35;;;9.60;99.90;;;;;;5090862;28;20056;-72
2022/10/23 03:33:46;;;;;;;5.10;3.17;;;9.60;99.90;;;;;;5090661;28;20028;-72
2022/10/23 03:36:11;;;;;;;5.65;3.08;;;9.50;99.90;;;;;;5091117;28;20024;-72
2022/10/23 03:38:37;;;;;;;6.00;3.40;;;9.50;99.90;;;;;;5072717;28;20028;-71
2022/10/23 03:41:03;;;;;;;7.82;3.67;;;9.50;99.90;;;;;;5090620;28;20103;-72
2022/10/23 03:43:28;;;;;;;4.97;3.22;;;9.50;99.90;;;;;;5090649;28;20401;-72
2022/10/23 03:45:57;;;;;;;9.35;3.92;;;9.50;99.90;;;;;;5090349;28;20086;-72
2022/10/23 03:48:25;;;;;;;10.30;4.32;;;9.60;99.90;;;;;;5090705;28;20024;-71
2022/10/23 03:50:51;;;;;;;8.02;3.40;;;9.60;99.90;;;;;;5089708;28;20047;-72
2022/10/23 03:53:17;;;;;;;5.70;3.30;;;9.70;99.90;;;;;;5089003;28;20361;-72
2022/10/23 03:55:45;;;;;;;4.95;3.45;;;9.70;99.90;;;;;;5089155;28;20055;-72
2022/10/23 03:58:11;;;;;;;7.38;3.38;;;9.70;99.90;;;;;;5089894;28;20032;-70
2022/10/23 04:00:37;;;;;;;5.18;3.60;;;9.80;99.90;;;;;;5090887;28;20465;-73
2022/10/23 04:03:02;;;;;;;3.80;2.90;;;9.70;99.90;;;;;;5089226;28;20055;-72
2022/10/23 04:05:28;;;;;;;4.90;3.38;;;9.70;99.90;;;;;;5091632;28;20028;-72
2022/10/23 04:07:53;;;;;;;3.17;2.88;;;9.70;99.90;;;;;;5090555;28;20082;-71
2022/10/23 04:10:19;;;;;;;4.63;3.20;;;9.70;99.90;;;;;;5091518;28;20063;-71
2022/10/23 04:12:45;;;;;;;6.07;3.60;;;9.70;99.90;;;;;;5097279;28;20035;-71
2022/10/23 04:15:10;;;;;;;5.85;3.33;;;9.80;99.90;;;;;;5096811;28;20086;-72
2022/10/23 04:17:36;;;;;;;7.32;3.45;;;9.80;99.90;;;;;;5094464;28;20036;-72
2022/10/23 04:20:01;;;;;;;5.18;3.83;;;9.80;99.90;;;;;;5086314;28;20107;-72
2022/10/23 04:22:27;;;;;;;6.30;3.13;;;9.90;99.90;;;;;;5098245;28;20098;-70
2022/10/23 04:24:53;;;;;;;4.93;3.40;;;9.90;99.90;;;;;;5096401;28;20066;-71
2022/10/23 04:27:18;;;;;;;3.97;3.05;;;9.90;99.90;;;;;;5098037;28;20477;-70
2022/10/23 04:29:44;;;;;;;3.40;3.10;;;9.90;99.90;;;;;;5097177;28;20039;-71
2022/10/23 04:32:09;;;;;;;4.47;3.50;;;9.90;99.90;;;;;;5096647;28;20020;-72
2022/10/23 04:34:35;;;;;;;8.65;3.47;;;9.90;99.90;;;;;;5097036;28;20099;-71
2022/10/23 04:37:00;;;;;;;5.97;3.40;;;9.90;99.90;;;;;;5091137;28;20043;-71
2022/10/23 04:39:26;;;;;;;3.92;3.53;;;10.00;99.90;;;;;;5097450;28;20039;-71
2022/10/23 04:41:52;;;;;;;5.53;3.85;;;10.00;99.90;;;;;;5096981;28;20150;-72
2022/10/23 04:44:17;;;;;;;5.50;3.47;;;10.00;99.90;;;;;;5096797;28;20050;-71
2022/10/23 04:46:43;;;;;;;4.63;3.13;;;10.10;99.90;;;;;;5097755;28;20047;-71
2022/10/23 04:49:08;;;;;;;3.95;3.22;;;10.10;99.90;;;;;;5095865;28;20058;-70
2022/10/23 04:51:34;;;;;;;3.10;2.80;;;10.10;99.90;;;;;;5098055;28;20158;-72
2022/10/23 04:53:59;;;;;;;8.00;3.63;;;10.10;99.90;;;;;;5088384;28;20046;-72
2022/10/23 04:56:25;;;;;;;10.30;3.72;;;10.10;99.90;;;;;;5088015;28;20032;-71
2022/10/23 04:58:51;;;;;;;5.43;3.38;;;10.10;99.90;;;;;;5077614;28;20469;-72
2022/10/23 05:01:17;;;;;;;6.88;4.03;;;10.10;99.90;;;;;;5093704;28;20055;-72
2022/10/23 05:03:43;;;;;;;6.22;3.53;;;10.20;99.90;;;;;;5096416;28;20094;-72
2022/10/23 05:06:09;;;;;;;4.18;3.53;;;10.20;99.90;;;;;;5096599;28;20115;-72
2022/10/23 05:08:34;;;;;;;7.63;3.33;;;10.20;99.90;;;;;;5096930;28;20035;-72
2022/10/23 05:11:00;;;;;;;4.95;3.50;;;10.30;99.90;;;;;;5096150;28;20500;-72
2022/10/23 05:13:26;;;;;;;10.98;4.43;;;10.30;99.90;;;;;;5085695;28;20397;-71
2022/10/23 05:15:52;;;;;;;8.13;3.63;;;10.30;99.90;;;;;;5096660;28;20027;-72
2022/10/23 05:18:18;;;;;;;4.32;3.45;;;10.30;99.90;;;;;;5096575;28;20024;-72
2022/10/23 05:20:45;;;;;;;6.90;3.60;;;10.30;99.90;;;;;;5097200;28;20073;-72
2022/10/23 05:23:13;;;;;;;7.47;3.50;;;10.30;99.90;;;;;;5087622;28;20606;-71
2022/10/23 05:25:39;;;;;;;4.95;3.67;;;10.30;99.90;;;;;;5094039;28;20106;-72
2022/10/23 05:28:05;;;;;;;6.68;3.80;;;10.30;99.90;;;;;;5092427;28;20063;-72
2022/10/23 05:30:32;;;;;;;6.63;4.13;;;10.20;99.90;;;;;;5093774;28;20461;-70
2022/10/23 05:33:00;;;;;;;4.95;3.35;;;10.20;99.90;;;;;;5092371;28;20056;-71
2022/10/23 05:35:26;;;;;;;6.38;3.58;;;10.20;99.90;;;;;;5093596;28;20028;-71
2022/10/23 05:37:54;;;;;;;7.82;3.95;;;10.20;99.90;;;;;;5093245;28;20099;-73
2022/10/23 05:40:20;;;;;;;7.20;3.90;;;10.10;99.90;;;;;;5093534;28;20032;-72
2022/10/23 05:42:45;;;;;;;6.53;3.53;;;10.20;99.90;;;;;;5093360;28;20391;-72
2022/10/23 05:45:11;;;;;;;5.65;3.67;;;10.10;99.90;;;;;;5092224;28;20600;-73
2022/10/23 05:47:37;;;;;;;4.55;3.30;;;10.10;99.90;;;;;;5093584;28;20031;-71
2022/10/23 05:50:03;;;;;;;5.97;3.70;;;10.10;99.90;;;;;;5091641;28;20052;-72
2022/10/23 05:52:28;;;;;;;9.05;3.80;;;10.00;99.90;;;;;;5092975;28;20039;-72
2022/10/23 05:54:54;;;;;;;6.32;3.67;;;10.00;99.90;;;;;;5091401;28;20107;-72
2022/10/23 05:57:19;;;;;;;3.80;3.42;;;10.00;99.90;;;;;;5093192;28;20020;-72
2022/10/23 05:59:45;;;;;;;5.55;3.60;;;10.00;99.90;;;;;;5092796;28;20081;-71
2022/10/23 06:02:11;;;;;;;4.70;3.47;;;10.00;99.90;;;;;;5092694;28;20096;-71
2022/10/23 06:04:36;;;;;;;5.28;3.80;;;9.90;99.90;;;;;;5092862;28;20030;-71
2022/10/23 06:07:02;;;;;;;5.45;3.70;;;10.00;99.90;;;;;;5092487;28;20095;-71
2022/10/23 06:09:29;;;;;;;4.15;3.75;;;9.90;99.90;;;;;;5074381;28;20058;-72
2022/10/23 06:11:54;;;;;;;4.20;3.40;;;9.90;99.90;;;;;;5083774;28;20107;-72
2022/10/23 06:14:20;;;;;;;6.10;3.83;;;9.90;99.90;;;;;;5077795;28;20132;-71
2022/10/23 06:16:45;;;;;;;5.80;3.95;;;10.00;99.90;;;;;;5082630;28;20505;-71
2022/10/23 06:19:12;;;;;;;4.82;3.75;;;10.00;99.90;;;;;;5091434;28;20036;-71
2022/10/23 06:21:38;;;;;;;5.82;3.13;;;10.10;99.90;;;;;;5092809;28;20028;-71
2022/10/23 06:24:05;;;;;;;6.22;3.80;;;10.10;99.90;;;;;;5091472;28;20024;-71
2022/10/23 06:26:31;;;;;;;5.90;3.67;;;10.20;99.90;;;;;;5079340;28;20118;-71
2022/10/23 06:28:56;;;;;;;8.70;3.40;;;10.30;99.90;;;;;;5083991;28;20115;-71
2022/10/23 06:31:26;;;;;;;5.22;3.47;;;10.30;99.90;;;;;;5089091;28;20489;-71
2022/10/23 06:33:56;;;;;;;5.43;3.33;;;10.40;99.90;;;;;;5086892;28;20031;-72
2022/10/23 06:36:22;;;;;;;3.92;3.15;;;10.40;99.90;;;;;;5083226;28;20035;-71
2022/10/23 06:38:48;;;;;;;4.45;3.17;;;10.40;99.90;;;;;;5091075;28;20036;-71
2022/10/23 06:41:19;;;;;;;6.53;3.25;;;10.50;99.90;;;;;;5088464;28;20054;-71
2022/10/23 06:43:48;;;;;;;9.40;4.28;;;10.60;99.90;;;;;;5083747;28;20436;-72
2022/10/23 06:46:14;;;;;;;7.65;3.30;;;10.70;99.90;;;;;;5080043;28;20039;-72
2022/10/23 06:48:43;;;;;;;5.35;3.20;;;10.80;99.90;;;;;;5090952;28;20020;-72
2022/10/23 06:51:11;;;;;;;5.28;3.20;;;10.80;99.90;;;;;;5087533;28;20059;-69
2022/10/23 06:53:37;;;;;;;4.88;3.20;;;10.90;99.90;;;;;;5091128;28;20028;-70
2022/10/23 06:56:04;;;;;;;3.85;3.30;;;10.90;99.90;;;;;;5071178;28;20386;-70
2022/10/23 06:58:31;;;;;;;8.38;3.65;;;10.90;99.90;;;;;;5091072;28;20089;-71
2022/10/23 07:01:00;;;;;;;5.32;3.38;;;11.00;99.90;;;;;;5076487;28;20024;-72
2022/10/23 07:03:26;;;;;;;9.85;3.65;;;11.00;99.90;;;;;;5087800;28;20024;-70
2022/10/23 07:05:52;;;;;;;6.68;3.58;;;11.10;99.90;;;;;;5080738;28;20032;-72
2022/10/23 07:08:18;;;;;;;4.45;3.35;;;11.20;99.90;;;;;;5090268;28;20020;-68
2022/10/23 07:10:44;;;;;;;8.15;4.32;;;11.30;99.90;;;;;;5072144;28;20700;-68
2022/10/23 07:13:10;;;;;;;9.45;5.15;;;11.40;99.90;;;;;;5089213;28;20028;-66
2022/10/23 07:15:37;;;;;;;7.45;4.03;;;11.50;99.90;;;;;;5088657;28;20012;-68
2022/10/23 07:18:04;;;;;;;5.18;3.78;;;11.60;99.90;;;;;;5082877;28;20457;-68
2022/10/23 07:20:29;;;;;;;4.65;3.60;;;11.70;99.90;;;;;;5079582;28;20115;-67
2022/10/23 07:22:55;;;;;;;3.83;3.30;;;11.70;99.90;;;;;;5087413;28;20106;-67
2022/10/23 07:25:23;;;;;;;12.93;4.13;;;11.80;99.90;;;;;;5084242;28;20031;-72
2022/10/23 07:27:49;;;;;;;7.78;4.38;;;11.90;99.90;;;;;;5087596;28;20103;-82
2022/10/23 07:30:15;;;;;;;9.30;4.55;;;12.00;99.90;;;;;;5085825;28;20115;-72
2022/10/23 07:32:41;;;;;;;10.63;4.65;;;12.00;99.90;;;;;;5085138;28;20484;-67
2022/10/23 07:35:07;;;;;;;8.38;4.30;;;12.20;99.90;;;;;;5084384;28;20035;-75
2022/10/23 07:37:33;;;;;;;8.32;4.82;;;12.20;99.90;;;;;;5071835;28;20368;-72
2022/10/23 07:39:59;;;;;;;7.63;4.90;;;12.30;99.90;;;;;;5085452;28;20117;-66
2022/10/23 07:42:24;;;;;;;7.32;4.90;;;12.30;99.90;;;;;;5090707;28;20020;-75
2022/10/23 07:44:50;;;;;;;8.85;4.90;;;12.40;99.90;;;;;;5079102;28;20028;-66
2022/10/23 07:47:15;;;;;;;8.55;4.75;;;12.60;99.90;;;;;;5089704;28;20415;-66
2022/10/23 07:49:41;;;;;;;7.05;4.53;;;12.60;99.90;;;;;;5087971;28;20090;-66
2022/10/23 07:52:07;;;;;;;7.78;4.82;;;12.70;99.90;;;;;;5083672;28;20060;-69
2022/10/23 07:54:32;;;;;;;8.07;3.97;;;12.90;99.90;;;;;;5072852;28;20024;-67
2022/10/23 07:56:59;;;;;;;5.00;4.00;;;12.90;99.90;;;;;;5090703;28;20032;-67
2022/10/23 07:59:24;;;;;;;6.43;4.28;;;13.00;99.90;;;;;;5085416;28;20051;-69
2022/10/23 08:01:51;;;;;;;5.18;4.03;;;13.10;99.90;;;;;;5076086;28;20051;-67
2022/10/23 08:04:18;;;;;;;8.45;4.90;;;13.20;99.90;;;;;;5089537;28;20805;-69
2022/10/23 08:06:44;;;;;;;6.60;4.65;;;13.30;99.90;;;;;;5089327;28;20024;-67
2022/10/23 08:09:09;;;;;;;6.18;4.50;;;13.30;99.90;;;;;;5087196;28;20089;-67
2022/10/23 08:11:36;;;;;;;5.13;3.90;;;13.40;99.90;;;;;;5089199;28;20024;-66
2022/10/23 08:14:04;;;;;;;7.82;5.03;;;13.40;99.90;;;;;;5033747;28;20036;-67
2022/10/23 08:16:33;;;;;;;6.03;4.07;;;13.50;99.90;;;;;;5089810;28;20060;-72
2022/10/23 08:18:59;;;;;;;9.43;4.40;;;13.50;99.90;;;;;;5079581;28;20083;-70
2022/10/23 08:21:25;;;;;;;5.07;3.53;;;13.60;99.90;;;;;;5090678;28;20492;-70
2022/10/23 08:23:55;;;;;;;5.82;3.75;;;13.60;99.90;;;;;;5088714;28;20052;-75
2022/10/23 08:26:21;;;;;;;7.05;4.10;;;13.70;99.90;;;;;;5078836;28;20024;-71
2022/10/23 08:28:46;;;;;;;8.85;4.03;;;13.90;99.90;;;;;;5089453;28;20499;-71
2022/10/23 08:31:14;;;;;;;6.13;3.47;;;14.10;99.90;;;;;;5084707;28;20036;-69
2022/10/23 08:33:40;;;;;;;5.65;3.22;;;14.20;99.90;;;;;;5078030;28;20039;-67
2022/10/23 08:36:21;;;;;;;3.15;2.50;;;14.30;99.90;;;;;;5088765;28;20028;-67
2022/10/23 08:38:48;;;;;;;7.70;3.47;;;14.40;99.90;;;;;;5087600;28;20032;-67
2022/10/23 08:41:28;;;;;;;6.55;3.53;;;14.50;99.90;;;;;;5089166;28;20025;-70
2022/10/23 08:44:16;;;;;;;5.53;3.35;;;14.50;99.90;;;;;;5071789;28;20393;-69
2022/10/23 08:46:46;;;;;;;8.35;3.35;;;14.50;99.90;;;;;;5083561;28;20466;-71
2022/10/23 08:49:17;;;;;;;5.75;3.60;;;14.60;99.90;;;;;;5082160;28;20032;-66
2022/10/23 08:51:49;;;;;;;6.82;2.80;;;14.60;99.90;;;;;;5082711;28;20052;-67
2022/10/23 08:54:21;;;;;;;7.38;2.95;;;14.70;99.90;;;;;;5082957;28;20020;-66
2022/10/23 08:56:52;;;;;;;5.03;2.75;;;14.70;99.90;;;;;;5083982;28;20473;-74
2022/10/23 08:59:25;;;;;;;6.55;2.60;;;14.70;99.90;;;;;;5084707;28;20020;-70
2022/10/23 09:02:19;;;;;;;4.28;2.60;;;14.70;99.90;;;;;;5092782;28;20028;-70
2022/10/23 09:04:47;;;;;;;6.50;2.38;;;14.70;99.90;;;;;;5057832;28;20089;-66
2022/10/23 09:07:25;;;;;;;4.45;2.50;;;14.80;99.90;;;;;;5089312;28;20024;-67
2022/10/23 09:10:31;;;;;;;4.75;2.55;;;14.90;99.90;;;;;;5084967;28;20046;-66
2022/10/23 09:13:14;;;;;;;6.05;2.30;;;15.00;99.90;;;;;;5092657;28;20020;-67
2022/10/23 09:15:46;;;;;;;8.07;2.85;;;15.20;99.90;;;;;;5081706;28;20025;-68
2022/10/23 09:18:14;;;;;;;5.97;2.90;;;15.40;99.90;;;;;;5092840;28;20370;-67
2022/10/23 09:20:42;;;;;;;8.85;4.75;;;15.60;99.90;;;;;;5088473;28;20027;-67
2022/10/23 09:23:16;;;;;;;6.05;3.80;;;15.70;99.90;;;;;;5092240;28;20032;-67
2022/10/23 09:25:42;;;;;;;5.30;4.03;;;15.80;99.90;;;;;;5092946;28;20028;-66
2022/10/23 09:28:23;;;;;;;8.52;4.40;;;15.90;99.90;;;;;;5093062;28;20024;-67
2022/10/23 09:30:49;;;;;;;6.40;3.55;;;16.00;99.90;;;;;;5093861;28;20031;-67
2022/10/23 09:33:19;;;;;;;5.53;3.30;;;16.10;99.90;;;;;;5092425;28;20109;-67
2022/10/23 09:35:51;;;;;;;4.70;3.50;;;16.20;99.90;;;;;;5093596;28;20043;-67
2022/10/23 09:38:46;;;;;;;4.65;3.60;;;16.40;99.90;;;;;;5092403;28;20028;-67
2022/10/23 09:41:35;;;;;;;4.05;3.30;;;16.60;99.90;;;;;;5093023;28;20024;-67
2022/10/23 09:44:06;;;;;;;6.90;3.30;;;16.70;99.90;;;;;;5080373;28;20055;-67
2022/10/23 09:46:44;;;;;;;3.05;2.13;;;16.90;99.90;;;;;;5093330;28;20433;-67
2022/10/23 09:49:24;;;;;;;6.95;2.40;;;17.10;99.90;;;;;;5091991;28;20032;-67
2022/10/23 09:52:18;;;;;;;5.43;2.40;;;17.20;99.90;;;;;;5081127;28;20055;-67
2022/10/23 09:54:50;;;;;;;4.50;1.95;;;17.40;99.90;;;;;;5092971;28;20476;-67
2022/10/23 09:57:41;;;;;;;5.22;2.47;;;17.50;99.90;;;;;;5092616;28;20020;-67
2022/10/23 10:00:13;;;;;;;5.93;2.10;;;17.50;99.90;;;;;;5092331;28;20051;-67
2022/10/23 10:02:40;;;;;;;2.88;1.73;;;17.70;99.90;;;;;;5093952;28;20036;-67
2022/10/23 10:05:28;;;;;;;2.53;1.63;;;17.80;99.90;;;;;;5074311;28;20465;-67
2022/10/23 10:08:21;;;;;;;3.88;1.80;;;18.00;99.90;;;;;;5091634;28;20035;-67
2022/10/23 10:10:51;;;;;;;3.72;1.80;;;18.10;99.90;;;;;;5087663;28;20040;-66
2022/10/23 10:13:32;;;;;;;2.75;1.80;;;18.20;99.90;;;;;;5092012;28;20023;-67
2022/10/23 10:16:09;;;;;;;2.85;1.80;;;18.40;99.90;;;;;;5092365;28;20377;-68
2022/10/23 10:19:01;;;;;;;5.63;2.10;;;18.50;99.90;;;;;;5092657;28;20049;-67
2022/10/23 10:22:03;;;;;;;5.15;2.08;;;18.70;99.90;;;;;;5083233;28;20031;-67
2022/10/23 10:24:34;;;;;;;5.97;2.20;;;19.00;99.90;;;;;;5092116;28;20119;-67
2022/10/23 10:27:09;;;;;;;7.88;2.05;;;19.20;99.90;;;;;;5086868;28;20500;-67
2022/10/23 10:30:02;;;;;;;6.20;2.20;;;19.30;99.90;;;;;;5092247;28;20031;-67
2022/10/23 10:32:36;;;;;;;6.63;2.67;;;19.40;99.90;;;;;;5091923;28;20035;-67
2022/10/23 10:35:24;;;;;;;4.30;2.13;;;19.60;99.90;;;;;;5091479;28;20066;-67
2022/10/23 10:38:04;;;;;;;5.75;1.90;;;19.60;99.90;;;;;;5083365;28;20416;-67
2022/10/23 10:41:01;;;;;;;5.20;1.98;;;19.60;99.90;;;;;;5092554;28;20028;-67
2022/10/23 10:43:38;;;;;;;9.07;2.20;;;19.80;99.90;;;;;;5038169;28;20084;-67
2022/10/23 10:46:25;;;;;;;5.07;1.90;;;19.90;99.90;;;;;;5087553;28;20034;-67
2022/10/23 10:49:00;;;;;;;4.18;1.88;;;20.10;99.90;;;;;;5092286;28;20035;-67
2022/10/23 10:51:39;;;;;;;10.40;2.47;;;20.30;99.90;;;;;;5092235;28;20127;-67
2022/10/23 10:54:14;;;;;;;4.00;2.33;;;20.30;99.90;;;;;;5091112;28;20039;-67
2022/10/23 10:56:43;;;;;;;2.20;1.80;;;20.30;99.90;;;;;;5091990;28;20036;-67
2022/10/23 10:59:27;;;;;;;4.35;2.22;;;20.40;99.90;;;;;;5091014;28;20452;-67
2022/10/23 11:02:00;;;;;;;2.75;1.88;;;20.40;99.90;;;;;;5092037;28;20109;-66
2022/10/23 11:05:09;;;;;;;2.63;1.83;;;20.50;99.90;;;;;;5091620;28;20074;-66
2022/10/23 11:07:40;;;;;;;1.52;1.40;;;20.60;99.90;;;;;;5087485;28;20020;-66
2022/10/23 11:10:16;;;;;;;1.92;1.50;;;20.70;99.90;;;;;;5090534;28;20494;-66
2022/10/23 11:12:44;;;;;;;2.05;1.60;;;20.90;99.90;;;;;;5091383;28;20035;-66
2022/10/23 11:15:17;;;;;;;2.10;1.90;;;21.00;99.90;;;;;;5090549;28;20024;-66
2022/10/23 11:17:55;;;;;;;2.72;2.10;;;21.20;99.90;;;;;;5091739;28;20061;-66
2022/10/23 11:20:24;;;;;;;3.97;2.17;;;21.40;99.90;;;;;;5088941;28;20114;-66
2022/10/23 11:23:01;;;;;;;2.20;1.58;;;21.40;99.90;;;;;;5091113;28;20630;-66
2022/10/23 11:25:45;;;;;;;4.45;2.53;;;21.40;99.90;;;;;;5091384;28;20020;-66
2022/10/23 11:28:36;;;;;;;3.83;2.03;;;21.50;99.90;;;;;;5088779;28;20476;-66
2022/10/23 11:31:14;;;;;;;3.13;1.80;;;21.50;99.90;;;;;;5091120;28;20456;-66
2022/10/23 11:34:00;;;;;;;4.13;2.05;;;21.40;99.90;;;;;;5080804;28;20078;-66
2022/10/23 11:36:49;;;;;;;5.97;2.15;;;21.40;99.90;;;;;;5091831;28;20024;-66
2022/10/23 11:39:29;;;;;;;8.60;2.00;;;21.30;99.90;;;;;;5072080;28;20036;-66
2022/10/23 11:41:59;;;;;;;3.03;2.22;;;21.20;99.90;;;;;;5091160;28;20032;-66
2022/10/23 11:44:27;;;;;;;8.00;2.65;;;21.20;99.90;;;;;;5084653;28;20024;-66
2022/10/23 11:47:05;;;;;;;4.45;2.30;;;21.20;99.90;;;;;;5073502;28;20389;-66
2022/10/23 11:49:31;;;;;;;9.93;2.47;;;21.20;99.90;;;;;;5090468;28;20105;-66
2022/10/23 11:52:04;;;;;;;3.35;2.30;;;21.30;99.90;;;;;;5091135;28;20030;-66
2022/10/23 11:54:30;;;;;;;4.90;1.67;;;21.30;99.90;;;;;;5090857;28;20027;-66
2022/10/23 11:57:02;;;;;;;4.07;1.42;;;21.30;99.90;;;;;;5090530;28;20032;-67
2022/10/23 11:59:33;;;;;;;4.53;1.70;;;21.30;99.90;;;;;;5090753;28;20036;-66
2022/10/23 12:02:01;;;;;;;1.90;1.48;;;21.30;99.90;;;;;;5074063;28;20064;-66
2022/10/23 12:04:39;;;;;;;2.03;1.40;;;21.50;99.90;;;;;;5086435;28;20028;-66
2022/10/23 12:07:17;;;;;;;3.50;1.40;;;21.50;99.90;;;;;;5081968;28;20036;-66
2022/10/23 12:09:56;;;;;;;4.03;1.70;;;21.60;99.90;;;;;;5088264;28;20089;-66
2022/10/23 12:12:29;;;;;;;4.32;2.45;;;21.70;99.90;;;;;;5079618;28;20052;-66
2022/10/23 12:15:15;;;;;;;3.05;1.58;;;21.80;99.90;;;;;;5090447;28;20082;-66
2022/10/23 12:17:42;;;;;;;5.55;2.08;;;21.90;99.90;;;;;;5085268;28;20504;-65
2022/10/23 12:20:11;;;;;;;5.05;2.40;;;22.00;99.90;;;;;;5081049;28;20480;-66
2022/10/23 12:22:46;;;;;;;3.95;1.77;;;22.00;99.90;;;;;;5089676;28;20427;-66
2022/10/23 12:25:24;;;;;;;2.67;1.75;;;22.00;99.90;;;;;;5076544;28;20154;-67
2022/10/23 12:28:05;;;;;;;3.88;2.20;;;22.00;99.90;;;;;;5090215;28;20060;-66
2022/10/23 12:31:02;;;;;;;6.07;2.38;;;22.00;99.90;;;;;;5090686;28;20055;-66
2022/10/23 12:33:30;;;;;;;5.70;2.20;;;22.10;99.90;;;;;;5060159;28;20040;-66
2022/10/23 12:36:22;;;;;;;5.05;2.40;;;22.20;99.90;;;;;;5085466;28;20116;-66
2022/10/23 12:38:53;;;;;;;5.53;2.45;;;22.30;99.90;;;;;;5054093;28;20051;-67
2022/10/23 12:41:25;;;;;;;4.70;2.25;;;22.30;99.90;;;;;;5093929;28;20089;-66
2022/10/23 12:43:58;;;;;;;6.53;2.30;;;22.50;99.90;;;;;;5093985;28;20126;-66
2022/10/23 12:46:31;;;;;;;4.82;2.20;;;22.50;99.90;;;;;;5094295;28;20024;-66
2022/10/23 12:48:58;;;;;;;3.17;1.92;;;22.60;99.90;;;;;;5089326;28;20495;-66
2022/10/23 12:51:34;;;;;;;5.00;2.10;;;22.70;99.90;;;;;;5093524;28;20044;-66
2022/10/23 12:54:01;;;;;;;4.22;2.17;;;22.70;99.90;;;;;;5093193;28;20032;-66
2022/10/23 12:56:32;;;;;;;3.50;1.90;;;23.00;99.90;;;;;;5094189;28;20551;-67
2022/10/23 12:59:00;;;;;;;3.22;2.00;;;;;;;;;;5092799;28;20032;-68
2022/10/23 13:01:28;;;;;;;4.40;1.60;;;;;;;;;;5094018;28;20047;-67
2022/10/23 13:04:26;;;;;;;3.75;1.80;;;;;;;;;;5093607;28;20109;-67
2022/10/23 13:06:53;;;;;;;6.35;1.88;;;24.40;99.90;;;;;;5032885;28;20024;-67
2022/10/23 13:09:36;;;;;;;2.60;1.65;;;24.40;99.90;;;;;;5092786;28;20031;-68
2022/10/23 13:12:04;;;;;;;1.92;1.73;;;24.60;99.90;;;;;;5092697;28;20028;-66
2022/10/23 13:14:34;;;;;;;3.47;1.70;;;24.60;99.90;;;;;;5093269;28;20103;-66